createdAt,value
2023-04-29T00:01:24.127Z,52.97
2023-04-29T00:03:51.862Z,50.40
2023-04-29T00:06:20.200Z,52.48
2023-04-29T00:08:48.548Z,51.04
2023-04-29T00:11:16.248Z,49.42
2023-04-29T00:13:43.686Z,52.84
2023-04-29T00:16:11.458Z,52.02
2023-04-29T00:18:39.841Z,52.65
2023-04-29T00:21:08.051Z,52.65
2023-04-29T00:23:36.148Z,52.33
2023-04-29T00:26:03.754Z,52.17
2023-04-29T00:28:31.140Z,50.38
2023-04-29T00:30:58.695Z,53.15
2023-04-29T00:33:26.820Z,52.70
2023-04-29T00:35:54.310Z,51.75
2023-04-29T00:38:21.534Z,51.74
2023-04-29T00:40:49.385Z,50.71
2023-04-29T00:43:17.022Z,50.86
2023-04-29T00:45:47.013Z,50.63
2023-04-29T00:48:15.994Z,53.10
2023-04-29T00:50:44.338Z,53.10
2023-04-29T00:53:14.720Z,50.84
2023-04-29T00:55:44.252Z,50.77
2023-04-29T00:58:19.997Z,53.91
2023-04-29T01:00:58.208Z,54.11
2023-04-29T01:03:26.189Z,53.20
2023-04-29T01:06:23.700Z,52.79
2023-04-29T01:09:11.375Z,53.06
2023-04-29T01:11:50.746Z,53.25
2023-04-29T01:14:18.183Z,53.05
2023-04-29T01:16:51.917Z,52.45
2023-04-29T01:19:43.067Z,53.64
2023-04-29T01:22:11.680Z,53.67
2023-04-29T01:24:39.948Z,54.55
2023-04-29T01:27:12.787Z,53.72
2023-04-29T01:29:46.757Z,51.69
2023-04-29T01:32:15.793Z,51.93
2023-04-29T01:34:51.208Z,53.28
2023-04-29T01:37:19.653Z,52.30
2023-04-29T01:40:06.919Z,52.25
2023-04-29T01:42:47.197Z,51.77
2023-04-29T01:45:17.375Z,50.58
2023-04-29T01:47:46.909Z,50.64
2023-04-29T01:50:14.884Z,50.27
2023-04-29T01:52:42.641Z,49.40
2023-04-29T01:55:10.824Z,49.28
2023-04-29T01:57:38.921Z,48.95
2023-04-29T02:00:07.023Z,48.43
2023-04-29T02:02:41.147Z,49.81
2023-04-29T02:05:10.194Z,48.85
2023-04-29T02:07:40.084Z,49.38
2023-04-29T02:10:08.127Z,48.51
2023-04-29T02:12:36.450Z,48.77
2023-04-29T02:15:04.483Z,48.24
2023-04-29T02:17:33.550Z,48.36
2023-04-29T02:20:01.314Z,48.76
2023-04-29T02:22:28.641Z,48.67
2023-04-29T02:24:56.600Z,49.49
2023-04-29T02:27:24.862Z,48.18
2023-04-29T02:29:58.085Z,47.37
2023-04-29T02:32:25.899Z,46.76
2023-04-29T02:34:57.199Z,45.98
2023-04-29T02:37:24.613Z,47.83
2023-04-29T02:39:51.977Z,48.00
2023-04-29T02:42:20.393Z,46.94
2023-04-29T02:44:56.672Z,46.71
2023-04-29T02:47:25.308Z,46.22
2023-04-29T02:49:56.613Z,46.53
2023-04-29T02:52:23.954Z,47.58
2023-04-29T02:54:58.381Z,47.34
2023-04-29T02:57:25.925Z,46.72
2023-04-29T02:59:57.538Z,47.18
2023-04-29T03:02:25.105Z,47.46
2023-04-29T03:04:57.212Z,48.10
2023-04-29T03:07:24.746Z,48.93
2023-04-29T03:09:59.194Z,47.89
2023-04-29T03:12:27.678Z,48.81
2023-04-29T03:14:58.838Z,49.20
2023-04-29T03:17:28.057Z,49.69
2023-04-29T03:19:57.978Z,49.22
2023-04-29T03:22:25.638Z,48.57
2023-04-29T03:24:53.112Z,48.25
2023-04-29T03:27:22.514Z,46.86
2023-04-29T03:29:49.992Z,46.83
2023-04-29T03:32:17.449Z,47.43
2023-04-29T03:34:45.779Z,48.20
2023-04-29T03:37:16.550Z,47.28
2023-04-29T03:39:45.279Z,46.15
2023-04-29T03:42:14.271Z,46.11
2023-04-29T03:44:43.153Z,46.17
2023-04-29T03:47:11.489Z,46.00
2023-04-29T03:49:38.997Z,46.19
2023-04-29T03:52:08.197Z,45.80
2023-04-29T03:54:38.281Z,45.68
2023-04-29T03:57:07.046Z,46.26
2023-04-29T03:59:34.487Z,46.20
2023-04-29T04:02:02.692Z,46.34
2023-04-29T04:04:31.032Z,47.40
2023-04-29T04:07:00.903Z,46.65
2023-04-29T04:09:29.303Z,46.38
2023-04-29T04:11:58.984Z,47.24
2023-04-29T04:14:30.053Z,47.00
2023-04-29T04:17:01.502Z,47.79
2023-04-29T04:19:30.721Z,47.21
2023-04-29T04:22:03.660Z,47.21
2023-04-29T04:24:35.465Z,46.67
2023-04-29T04:27:06.052Z,46.89
2023-04-29T04:29:41.016Z,47.57
2023-04-29T04:32:10.289Z,47.61
2023-04-29T04:34:41.484Z,47.19
2023-04-29T04:37:13.185Z,46.73
2023-04-29T04:39:43.982Z,46.53
2023-04-29T04:42:19.207Z,46.50
2023-04-29T04:44:48.720Z,46.23
2023-04-29T04:47:18.277Z,47.85
2023-04-29T04:49:46.965Z,47.20
2023-04-29T04:52:23.282Z,48.55
2023-04-29T04:54:52.709Z,47.88
2023-04-29T04:57:22.972Z,48.07
2023-04-29T04:59:51.333Z,48.41
2023-04-29T05:02:20.249Z,48.76
2023-04-29T05:04:50.170Z,48.88
2023-04-29T05:07:20.460Z,48.25
2023-04-29T05:09:51.329Z,47.94
2023-04-29T05:12:21.084Z,47.40
2023-04-29T05:14:55.273Z,47.19
2023-04-29T05:17:26.201Z,46.66
2023-04-29T05:19:59.874Z,46.99
2023-04-29T05:22:28.005Z,45.60
2023-04-29T05:25:03.124Z,46.25
2023-04-29T05:27:43.526Z,46.44
2023-04-29T05:30:16.132Z,46.59
2023-04-29T05:32:45.981Z,46.51
2023-04-29T05:35:19.264Z,46.73
2023-04-29T05:37:55.008Z,46.81
2023-04-29T05:40:28.223Z,47.39
2023-04-29T05:43:07.044Z,47.63
2023-04-29T05:45:40.705Z,47.45
2023-04-29T05:48:14.021Z,48.37
2023-04-29T05:50:43.315Z,47.72
2023-04-29T05:53:12.171Z,47.48
2023-04-29T05:55:40.771Z,46.73
2023-04-29T05:58:08.897Z,46.31
2023-04-29T06:00:37.315Z,47.31
2023-04-29T06:03:06.526Z,46.81
2023-04-29T06:05:35.881Z,46.78
2023-04-29T06:08:08.029Z,46.43
2023-04-29T06:10:41.789Z,45.63
2023-04-29T06:13:12.144Z,45.11
2023-04-29T06:15:46.432Z,43.66
2023-04-29T06:18:15.197Z,44.11
2023-04-29T06:20:45.077Z,45.89
2023-04-29T06:23:15.435Z,44.80
2023-04-29T06:25:52.829Z,45.27
2023-04-29T06:28:28.317Z,44.58
2023-04-29T06:30:59.248Z,44.52
2023-04-29T06:33:35.407Z,43.48
2023-04-29T06:36:12.050Z,44.35
2023-04-29T06:38:45.388Z,44.57
2023-04-29T06:41:13.521Z,44.26
2023-04-29T06:43:44.014Z,44.17
2023-04-29T06:46:13.198Z,43.80
2023-04-29T06:48:47.422Z,44.36
2023-04-29T06:51:20.037Z,44.33
2023-04-29T06:53:50.449Z,44.87
2023-04-29T06:56:26.920Z,44.01
2023-04-29T06:58:55.736Z,43.64
2023-04-29T07:01:33.132Z,44.08
2023-04-29T07:04:03.760Z,45.93
2023-04-29T07:06:33.505Z,45.67
2023-04-29T07:09:04.284Z,45.97
2023-04-29T07:11:34.226Z,45.21
2023-04-29T07:14:04.195Z,45.50
2023-04-29T07:16:33.319Z,43.89
2023-04-29T07:19:02.931Z,43.79
2023-04-29T07:21:31.762Z,44.42
2023-04-29T07:24:03.073Z,44.32
2023-04-29T07:26:35.746Z,43.92
2023-04-29T07:29:17.095Z,42.83
2023-04-29T07:31:46.261Z,43.38
2023-04-29T07:34:14.174Z,43.43
2023-04-29T07:36:43.493Z,44.15
2023-04-29T07:39:18.038Z,43.49
2023-04-29T07:41:47.362Z,43.09
2023-04-29T07:44:18.065Z,42.72
2023-04-29T07:46:46.870Z,43.48
2023-04-29T07:49:26.220Z,43.16
2023-04-29T07:51:55.502Z,43.16
2023-04-29T07:54:28.986Z,42.98
2023-04-29T07:57:04.039Z,41.60
2023-04-29T07:59:32.941Z,39.94
2023-04-29T08:02:07.262Z,39.59
2023-04-29T08:04:39.474Z,40.54
2023-04-29T08:07:13.208Z,40.21
2023-04-29T08:09:42.059Z,39.89
2023-04-29T08:12:16.020Z,39.79
2023-04-29T08:14:51.678Z,39.12
2023-04-29T08:17:22.352Z,38.50
2023-04-29T08:19:50.253Z,39.86
2023-04-29T08:22:18.611Z,39.02
2023-04-29T08:24:50.512Z,40.14
2023-04-29T08:27:20.126Z,38.24
2023-04-29T08:29:48.745Z,38.29
2023-04-29T08:32:18.083Z,38.61
2023-04-29T08:34:49.335Z,39.58
2023-04-29T08:37:18.682Z,38.23
2023-04-29T08:39:48.050Z,38.69
2023-04-29T08:42:16.226Z,37.75
2023-04-29T08:44:45.493Z,37.14
2023-04-29T08:47:16.509Z,38.18
2023-04-29T08:49:45.993Z,36.23
2023-04-29T08:52:14.568Z,35.58
2023-04-29T08:54:44.498Z,35.36
2023-04-29T08:57:12.261Z,36.52
2023-04-29T08:59:42.361Z,35.25
2023-04-29T09:02:21.628Z,36.44
2023-04-29T09:05:00.194Z,36.44
2023-04-29T09:07:33.141Z,36.70
2023-04-29T09:12:42.359Z,36.26
2023-04-29T09:15:16.140Z,36.63
2023-04-29T09:17:47.943Z,36.00
2023-04-29T09:20:28.070Z,36.74
2023-04-29T09:22:57.991Z,36.23
2023-04-29T09:25:36.570Z,36.59
2023-04-29T09:28:31.250Z,35.55
2023-04-29T09:31:00.002Z,36.24
2023-04-29T09:33:32.077Z,35.19
2023-04-29T09:36:03.669Z,34.99
2023-04-29T09:38:35.052Z,35.04
2023-04-29T09:41:05.199Z,35.43
2023-04-29T09:43:42.525Z,34.51
2023-04-29T09:48:49.592Z,34.35
2023-04-29T09:51:26.301Z,33.29
2023-04-29T09:53:54.044Z,33.16
2023-04-29T09:56:23.149Z,32.34
2023-04-29T09:58:53.078Z,32.10
2023-04-29T10:01:21.915Z,32.33
2023-04-29T10:03:51.630Z,33.68
2023-04-29T10:06:20.015Z,32.52
2023-04-29T10:08:47.957Z,32.83
2023-04-29T10:11:16.183Z,32.83
2023-04-29T10:13:49.059Z,32.75
2023-04-29T10:16:30.893Z,32.31
2023-04-29T10:19:00.347Z,32.79
2023-04-29T10:21:32.133Z,30.46
2023-04-29T10:24:09.965Z,31.90
2023-04-29T10:26:40.402Z,33.02
2023-04-29T10:29:10.295Z,32.60
2023-04-29T10:31:38.007Z,32.38
2023-04-29T10:34:06.477Z,32.96
2023-04-29T10:36:33.992Z,32.93
2023-04-29T10:39:05.075Z,33.25
2023-04-29T10:41:49.048Z,32.37
2023-04-29T10:44:18.193Z,32.37
2023-04-29T10:46:46.768Z,33.68
2023-04-29T10:49:24.198Z,32.75
2023-04-29T10:51:57.814Z,33.42
2023-04-29T10:54:28.202Z,33.04
2023-04-29T10:56:58.423Z,31.18
2023-04-29T10:59:30.048Z,30.67
2023-04-29T11:01:58.237Z,30.89
2023-04-29T11:04:27.148Z,33.10
2023-04-29T11:07:07.127Z,33.23
2023-04-29T11:09:43.096Z,30.55
2023-04-29T11:12:12.046Z,30.94
2023-04-29T11:14:50.584Z,32.53
2023-04-29T11:19:59.089Z,31.40
2023-04-29T11:22:30.855Z,31.92
2023-04-29T11:25:05.094Z,30.49
2023-04-29T11:27:43.206Z,31.16
2023-04-29T11:30:15.310Z,31.61
2023-04-29T11:32:52.263Z,32.30
2023-04-29T11:35:22.179Z,32.69
2023-04-29T11:37:49.667Z,30.07
2023-04-29T11:42:51.375Z,32.15
2023-04-29T11:45:22.080Z,31.28
2023-04-29T11:47:53.948Z,31.84
2023-04-29T11:50:23.580Z,31.23
2023-04-29T11:53:02.170Z,30.83
2023-04-29T11:55:31.514Z,31.49
2023-04-29T11:58:00.181Z,32.02
2023-04-29T12:00:31.353Z,31.47
2023-04-29T12:02:59.526Z,31.31
2023-04-29T12:05:33.555Z,30.77
2023-04-29T12:08:08.068Z,31.03
2023-04-29T12:10:38.094Z,30.90
2023-04-29T12:13:10.078Z,31.69
2023-04-29T12:15:42.193Z,30.79
2023-04-29T12:18:12.282Z,29.98
2023-04-29T12:20:45.344Z,30.60
2023-04-29T12:23:16.220Z,31.41
2023-04-29T12:25:53.277Z,31.37
2023-04-29T12:28:30.669Z,30.35
2023-04-29T12:31:00.299Z,30.61
2023-04-29T12:33:33.638Z,31.82
2023-04-29T12:36:15.858Z,31.74
2023-04-29T12:38:44.790Z,30.85
2023-04-29T12:41:16.061Z,31.52
2023-04-29T12:43:46.104Z,31.39
2023-04-29T12:46:19.997Z,30.57
2023-04-29T12:48:50.422Z,30.52
2023-04-29T12:51:25.314Z,30.82
2023-04-29T12:53:54.470Z,31.55
2023-04-29T12:56:27.057Z,31.28
2023-04-29T12:58:58.044Z,30.36
2023-04-29T13:01:26.561Z,31.19
2023-04-29T13:03:54.856Z,29.96
2023-04-29T13:06:23.716Z,30.34
2023-04-29T13:08:53.797Z,29.01
2023-04-29T13:11:34.107Z,29.57
2023-04-29T13:14:04.829Z,28.30
2023-04-29T13:16:38.173Z,27.57
2023-04-29T13:19:27.730Z,29.10
2023-04-29T13:21:58.355Z,29.96
2023-04-29T13:24:26.454Z,30.23
2023-04-29T13:26:54.717Z,30.35
2023-04-29T13:29:24.072Z,30.40
2023-04-29T13:31:59.182Z,30.90
2023-04-29T13:34:34.180Z,29.17
2023-04-29T13:37:02.775Z,28.64
2023-04-29T13:39:31.680Z,29.15
2023-04-29T13:42:01.238Z,30.19
2023-04-29T13:44:35.857Z,28.81
2023-04-29T13:47:18.105Z,31.47
2023-04-29T13:50:22.836Z,32.01
2023-04-29T13:56:11.593Z,30.61
2023-04-29T13:58:56.183Z,29.98
2023-04-29T14:01:37.914Z,29.73
2023-04-29T14:04:00.452Z,30.23
2023-04-29T14:06:38.097Z,31.45
2023-04-29T14:09:06.532Z,30.86
2023-04-29T14:11:37.172Z,29.74
2023-04-29T14:14:13.168Z,29.94
2023-04-29T14:16:45.568Z,30.22
2023-04-29T14:19:19.212Z,30.31
2023-04-29T14:21:56.288Z,30.11
2023-04-29T14:24:25.197Z,29.25
2023-04-29T14:26:53.597Z,30.02
2023-04-29T14:29:22.120Z,31.63
2023-04-29T14:31:52.122Z,32.23
2023-04-29T14:34:22.095Z,31.91
2023-04-29T14:36:59.042Z,32.09
2023-04-29T14:39:27.557Z,31.32
2023-04-29T14:41:58.511Z,31.31
2023-04-29T14:44:33.152Z,31.61
2023-04-29T14:47:06.335Z,31.77
2023-04-29T14:52:20.297Z,30.71
2023-04-29T14:55:01.064Z,30.45
2023-04-29T14:57:31.214Z,30.71
2023-04-29T14:59:59.343Z,30.82
2023-04-29T15:02:27.725Z,31.70
2023-04-29T15:07:32.054Z,31.76
2023-04-29T15:10:01.132Z,31.73
2023-04-29T15:12:33.187Z,30.99
2023-04-29T15:15:11.176Z,30.83
2023-04-29T15:17:41.164Z,31.45
2023-04-29T15:20:12.140Z,31.03
2023-04-29T15:22:43.523Z,31.69
2023-04-29T15:25:27.811Z,31.46
2023-04-29T15:27:59.324Z,30.65
2023-04-29T15:30:42.136Z,31.17
2023-04-29T15:33:12.138Z,30.76
2023-04-29T15:35:43.350Z,31.13
2023-04-29T15:38:16.150Z,29.69
2023-04-29T15:40:44.251Z,30.65
2023-04-29T15:43:12.105Z,30.37
2023-04-29T15:45:49.236Z,31.01
2023-04-29T15:48:18.581Z,31.01
2023-04-29T15:50:54.841Z,31.44
2023-04-29T15:53:34.154Z,30.13
2023-04-29T15:56:08.151Z,30.33
2023-04-29T15:58:40.603Z,31.22
2023-04-29T16:01:09.485Z,32.18
2023-04-29T16:03:38.533Z,32.13
2023-04-29T16:06:08.638Z,32.80
2023-04-29T16:08:48.083Z,32.56
2023-04-29T16:11:24.645Z,32.61
2023-04-29T16:13:55.171Z,32.75
2023-04-29T16:16:35.068Z,33.13
2023-04-29T16:19:05.150Z,32.65
2023-04-29T16:24:24.272Z,32.81
2023-04-29T16:26:56.782Z,32.64
2023-04-29T16:29:30.325Z,32.69
2023-04-29T16:31:59.528Z,32.54
2023-04-29T16:34:27.157Z,32.42
2023-04-29T16:36:55.028Z,33.90
2023-04-29T16:39:23.481Z,34.36
2023-04-29T16:41:59.712Z,33.34
2023-04-29T16:44:27.888Z,32.64
2023-04-29T16:46:57.013Z,32.95
2023-04-29T16:49:26.793Z,32.42
2023-04-29T16:51:55.340Z,32.84
2023-04-29T16:54:25.170Z,32.27
2023-04-29T16:56:55.131Z,32.48
2023-04-29T16:59:25.609Z,34.82
2023-04-29T17:01:54.456Z,34.06
2023-04-29T17:04:23.233Z,33.83
2023-04-29T17:06:57.334Z,33.90
2023-04-29T17:09:26.161Z,32.94
2023-04-29T17:12:09.258Z,32.42
2023-04-29T17:14:44.377Z,33.10
2023-04-29T17:17:17.528Z,32.84
2023-04-29T17:19:52.458Z,34.02
2023-04-29T17:22:26.239Z,33.47
2023-04-29T17:24:54.531Z,33.45
2023-04-29T17:27:30.924Z,36.14
2023-04-29T17:32:45.122Z,35.52
2023-04-29T17:35:13.656Z,36.38
2023-04-29T17:37:41.821Z,35.71
2023-04-29T17:40:13.183Z,35.22
2023-04-29T17:42:50.157Z,35.17
2023-04-29T17:45:25.664Z,35.60
2023-04-29T17:47:55.144Z,35.66
2023-04-29T17:50:23.439Z,36.87
2023-04-29T17:52:57.187Z,36.87
2023-04-29T17:55:32.100Z,36.48
2023-04-29T17:58:08.554Z,37.99
2023-04-29T18:00:37.649Z,38.28
2023-04-29T18:03:13.453Z,37.49
2023-04-29T18:05:47.521Z,38.76
2023-04-29T18:08:17.669Z,38.54
2023-04-29T18:10:46.248Z,39.08
2023-04-29T18:13:19.217Z,39.19
2023-04-29T18:15:52.267Z,39.71
2023-04-29T18:18:24.073Z,39.68
2023-04-29T18:20:59.562Z,40.21
2023-04-29T18:23:28.741Z,40.45
2023-04-29T18:25:59.153Z,40.52
2023-04-29T18:28:29.489Z,41.46
2023-04-29T18:30:59.451Z,41.91
2023-04-29T18:33:34.186Z,41.78
2023-04-29T18:36:09.478Z,42.59
2023-04-29T18:38:42.182Z,42.83
2023-04-29T18:41:11.145Z,43.49
2023-04-29T18:43:46.708Z,43.45
2023-04-29T18:46:21.353Z,43.62
2023-04-29T18:48:48.863Z,43.75
2023-04-29T18:51:18.154Z,44.47
2023-04-29T18:53:52.271Z,44.27
2023-04-29T18:56:26.541Z,44.54
2023-04-29T18:59:21.236Z,44.46
2023-04-29T19:02:04.140Z,45.04
2023-04-29T19:04:47.772Z,45.87
2023-04-29T19:07:31.332Z,45.32
2023-04-29T19:10:31.145Z,45.07
2023-04-29T19:13:20.573Z,45.09
2023-04-29T19:16:12.613Z,45.15
2023-04-29T19:18:53.271Z,44.87
2023-04-29T19:21:53.428Z,45.76
2023-04-29T19:24:39.205Z,45.83
2023-04-29T19:27:34.062Z,45.80
2023-04-29T19:33:17.231Z,46.14
2023-04-29T19:36:05.730Z,45.76
2023-04-29T19:38:57.322Z,45.53
2023-04-29T19:41:40.152Z,45.77
2023-04-29T19:44:27.417Z,45.84
2023-04-29T19:47:15.163Z,45.66
2023-04-29T19:50:00.202Z,46.09
2023-04-29T19:52:48.222Z,46.34
2023-04-29T19:55:42.859Z,46.69
2023-04-29T20:01:33.157Z,47.67
2023-04-29T20:04:31.361Z,47.68
2023-04-29T20:07:17.448Z,48.65
2023-04-29T20:10:29.948Z,48.32
2023-04-29T20:13:08.223Z,47.90
2023-04-29T20:15:51.146Z,47.43
2023-04-29T20:18:36.137Z,47.02
2023-04-29T20:21:24.388Z,48.17
2023-04-29T20:24:06.627Z,48.89
2023-04-29T20:27:03.861Z,48.61
2023-04-29T20:29:46.235Z,48.41
2023-04-29T20:32:28.668Z,48.72
2023-04-29T20:35:29.827Z,49.25
2023-04-29T20:38:14.156Z,48.90
2023-04-29T20:41:09.182Z,48.71
2023-04-29T20:43:49.208Z,48.53
2023-04-29T20:46:31.811Z,48.47
2023-04-29T20:49:25.098Z,48.46
2023-04-29T20:52:16.587Z,48.71
2023-04-29T20:55:12.167Z,49.01
2023-04-29T20:57:56.232Z,48.85
2023-04-29T21:00:50.150Z,48.99
2023-04-29T21:03:33.120Z,48.15
2023-04-29T21:06:40.336Z,48.28
2023-04-29T21:09:22.093Z,49.30
2023-04-29T21:12:05.886Z,49.77
2023-04-29T21:14:52.242Z,49.58
2023-04-29T21:17:46.359Z,49.51
2023-04-29T21:20:29.120Z,50.45
2023-04-29T21:23:33.211Z,50.58
2023-04-29T21:26:15.081Z,50.71
2023-04-29T21:28:57.193Z,50.50
2023-04-29T21:31:39.472Z,51.00
2023-04-29T21:34:41.490Z,49.94
2023-04-29T21:37:24.329Z,51.00
2023-04-29T21:40:08.909Z,50.61
2023-04-29T21:42:58.327Z,50.94
2023-04-29T21:45:50.593Z,50.61
2023-04-29T21:48:31.600Z,51.51
2023-04-29T21:51:26.868Z,50.78
2023-04-29T21:54:09.304Z,50.15
2023-04-29T21:57:00.592Z,50.44
2023-04-29T21:59:43.021Z,51.52
2023-04-29T22:02:38.229Z,51.17
2023-04-29T22:05:21.524Z,50.68
2023-04-29T22:08:15.859Z,50.58
2023-04-29T22:10:55.200Z,51.33
2023-04-29T22:13:50.147Z,51.38
2023-04-29T22:16:34.148Z,51.34
2023-04-29T22:19:21.856Z,51.14
2023-04-29T22:22:05.317Z,50.68
2023-04-29T22:25:00.185Z,50.66
2023-04-29T22:27:41.856Z,50.42
2023-04-29T22:30:36.718Z,50.87
2023-04-29T22:33:19.539Z,50.87
2023-04-29T22:36:04.245Z,50.11
2023-04-29T22:38:55.723Z,50.51
2023-04-29T22:41:23.860Z,51.11
2023-04-29T22:43:57.270Z,51.36
2023-04-29T22:46:26.884Z,51.74
2023-04-29T22:49:02.132Z,51.97
2023-04-29T22:51:32.358Z,51.82
2023-04-29T22:54:00.732Z,51.43
2023-04-29T22:56:29.261Z,50.73
2023-04-29T22:58:56.897Z,50.61
2023-04-29T23:01:49.002Z,50.51
2023-04-29T23:04:28.951Z,50.79
2023-04-29T23:07:21.215Z,50.69
2023-04-29T23:10:13.360Z,50.57
2023-04-29T23:12:52.093Z,50.29
2023-04-29T23:15:56.185Z,50.02
2023-04-29T23:18:35.284Z,50.19
2023-04-29T23:21:27.256Z,49.76
2023-04-29T23:24:08.142Z,49.88
2023-04-29T23:27:00.134Z,50.55
2023-04-29T23:29:41.649Z,50.63
2023-04-29T23:32:33.070Z,50.27
2023-04-29T23:35:12.163Z,50.51
2023-04-29T23:38:05.783Z,50.63
2023-04-29T23:40:56.815Z,50.94
2023-04-29T23:43:41.168Z,49.98
2023-04-29T23:46:32.812Z,50.25
2023-04-29T23:49:12.437Z,51.03
2023-04-29T23:51:53.906Z,50.80
2023-04-29T23:54:44.953Z,50.51
2023-04-29T23:57:27.007Z,50.17
2023-04-29T23:59:59.743Z,50.62
